createdAt,value
2023-08-29T00:00:47.723Z,0.27
2023-08-29T00:03:49.881Z,0.20
2023-08-29T00:06:51.762Z,0.20
2023-08-29T00:09:54.185Z,0.40
2023-08-29T00:12:56.142Z,0.20
2023-08-29T00:15:58.500Z,0.30
2023-08-29T00:19:01.033Z,0.37
2023-08-29T00:22:02.971Z,0.30
2023-08-29T00:25:05.952Z,0.37
2023-08-29T00:28:08.811Z,0.20
2023-08-29T00:31:11.924Z,0.20
2023-08-29T00:34:13.788Z,0.53
2023-08-29T00:37:18.398Z,0.10
2023-08-29T00:40:20.482Z,0.10
2023-08-29T00:43:22.973Z,0.33
2023-08-29T00:46:25.459Z,0.30
2023-08-29T00:49:29.065Z,0.47
2023-08-29T00:52:31.932Z,0.20
2023-08-29T00:55:35.519Z,0.30
2023-08-29T00:58:38.166Z,0.40
2023-08-29T01:01:40.460Z,0.20
2023-08-29T01:04:42.638Z,0.37
2023-08-29T01:07:45.092Z,0.23
2023-08-29T01:11:03.366Z,0.27
2023-08-29T01:14:15.365Z,0.30
2023-08-29T01:17:25.049Z,0.37
2023-08-29T01:20:29.022Z,0.30
2023-08-29T01:23:44.460Z,0.50
2023-08-29T01:26:47.741Z,0.70
2023-08-29T01:29:50.254Z,0.50
2023-08-29T01:32:54.475Z,0.57
2023-08-29T01:35:56.461Z,0.47
2023-08-29T01:38:58.395Z,0.40
2023-08-29T01:42:00.301Z,0.60
2023-08-29T01:45:02.748Z,0.67
2023-08-29T01:48:05.869Z,0.60
2023-08-29T01:51:08.266Z,0.33
2023-08-29T01:54:10.190Z,0.37
2023-08-29T01:57:14.846Z,0.20
2023-08-29T02:00:17.486Z,0.40
2023-08-29T02:03:19.425Z,0.27
2023-08-29T02:06:21.443Z,0.40
2023-08-29T02:09:23.614Z,0.30
2023-08-29T02:12:25.596Z,0.50
2023-08-29T02:15:27.913Z,0.53
2023-08-29T02:18:30.418Z,0.50
2023-08-29T02:21:32.407Z,0.47
2023-08-29T02:24:34.368Z,0.40
2023-08-29T02:27:36.466Z,0.30
2023-08-29T02:30:39.614Z,0.60
2023-08-29T02:33:41.647Z,0.40
2023-08-29T02:36:44.087Z,0.60
2023-08-29T02:39:46.679Z,0.50
2023-08-29T02:42:48.598Z,0.40
2023-08-29T02:45:51.906Z,0.53
2023-08-29T02:48:53.882Z,0.30
2023-08-29T02:51:55.932Z,0.40
2023-08-29T02:54:57.986Z,0.40
2023-08-29T02:58:00.457Z,0.50
2023-08-29T03:01:04.051Z,0.63
2023-08-29T03:04:06.053Z,0.60
2023-08-29T03:07:09.086Z,0.40
2023-08-29T03:10:11.836Z,0.60
2023-08-29T03:13:13.864Z,0.50
2023-08-29T03:16:18.919Z,0.53
2023-08-29T03:19:22.720Z,0.50
2023-08-29T03:22:24.616Z,0.37
2023-08-29T03:25:27.200Z,0.63
2023-08-29T03:28:29.153Z,0.30
2023-08-29T03:31:31.258Z,0.53
2023-08-29T03:34:33.679Z,0.57
2023-08-29T03:37:35.696Z,0.50
2023-08-29T03:40:37.627Z,0.47
2023-08-29T03:43:39.709Z,0.43
2023-08-29T03:46:41.644Z,0.30
2023-08-29T03:49:43.692Z,0.30
2023-08-29T03:52:45.583Z,0.40
2023-08-29T03:55:48.036Z,0.30
2023-08-29T03:58:50.592Z,0.30
2023-08-29T04:01:52.993Z,0.20
2023-08-29T04:04:55.107Z,0.20
2023-08-29T04:07:57.318Z,0.30
2023-08-29T04:10:59.246Z,0.30
2023-08-29T04:14:03.201Z,0.20
2023-08-29T04:17:05.753Z,0.30
2023-08-29T04:20:09.867Z,0.30
2023-08-29T04:23:11.946Z,0.30
2023-08-29T04:26:13.996Z,0.37
2023-08-29T04:29:15.959Z,0.20
2023-08-29T04:32:17.983Z,0.20
2023-08-29T04:35:20.533Z,0.27
2023-08-29T04:38:22.489Z,0.20
2023-08-29T04:41:24.463Z,0.20
2023-08-29T04:44:26.396Z,0.50
2023-08-29T04:47:28.853Z,0.30
2023-08-29T04:50:31.670Z,0.30
2023-08-29T04:53:34.646Z,0.20
2023-08-29T04:56:36.672Z,0.50
2023-08-29T04:59:38.683Z,0.30
2023-08-29T05:02:41.112Z,0.20
2023-08-29T05:05:47.431Z,0.30
2023-08-29T05:08:49.356Z,0.30
2023-08-29T05:11:51.563Z,0.30
2023-08-29T05:14:55.825Z,0.40
2023-08-29T05:17:58.117Z,0.20
2023-08-29T05:21:00.193Z,0.40
2023-08-29T05:24:03.950Z,0.20
2023-08-29T05:27:06.214Z,0.23
2023-08-29T05:30:09.208Z,0.23
2023-08-29T05:33:11.656Z,0.20
2023-08-29T05:36:15.883Z,0.40
2023-08-29T05:39:17.965Z,0.50
2023-08-29T05:42:20.182Z,0.43
2023-08-29T05:45:22.229Z,0.30
2023-08-29T05:48:24.263Z,0.20
2023-08-29T05:51:26.915Z,0.23
2023-08-29T05:54:29.692Z,0.37
2023-08-29T05:57:31.885Z,0.40
2023-08-29T06:00:33.889Z,0.40
2023-08-29T06:03:38.778Z,0.53
2023-08-29T06:06:41.466Z,0.30
2023-08-29T06:09:43.796Z,0.33
2023-08-29T06:12:45.704Z,0.50
2023-08-29T06:15:47.722Z,0.30
2023-08-29T06:18:49.614Z,1.10
2023-08-29T06:21:51.648Z,0.63
2023-08-29T06:24:53.657Z,0.40
2023-08-29T06:27:55.773Z,0.30
2023-08-29T06:30:57.644Z,0.30
2023-08-29T06:34:00.101Z,0.20
2023-08-29T06:37:02.066Z,0.30
2023-08-29T06:40:08.029Z,0.20
2023-08-29T06:43:10.052Z,0.20
2023-08-29T06:46:12.323Z,0.30
2023-08-29T06:49:14.278Z,0.63
2023-08-29T06:52:16.322Z,0.43
2023-08-29T06:55:18.372Z,0.43
2023-08-29T06:58:20.491Z,0.30
2023-08-29T07:01:22.408Z,0.47
2023-08-29T07:04:24.472Z,0.50
2023-08-29T07:07:26.706Z,0.30
2023-08-29T07:10:28.801Z,0.40
2023-08-29T07:13:31.451Z,0.30
2023-08-29T07:16:34.045Z,0.50
2023-08-29T07:19:36.058Z,0.33
2023-08-29T07:22:45.225Z,0.30
2023-08-29T07:25:48.045Z,0.40
2023-08-29T07:28:50.535Z,0.40
2023-08-29T07:31:52.545Z,0.40
2023-08-29T07:34:57.439Z,0.30
2023-08-29T07:37:59.375Z,0.40
2023-08-29T07:41:01.691Z,0.40
2023-08-29T07:44:03.810Z,0.40
2023-08-29T07:47:15.423Z,0.40
2023-08-29T07:50:18.449Z,0.50
2023-08-29T07:53:20.892Z,0.40
2023-08-29T07:56:22.960Z,0.43
2023-08-29T07:59:25.307Z,0.20
2023-08-29T08:02:27.207Z,0.30
2023-08-29T08:05:29.257Z,0.33
2023-08-29T08:08:38.514Z,0.30
2023-08-29T08:11:40.635Z,0.40
2023-08-29T08:14:43.060Z,0.20
2023-08-29T08:17:45.789Z,0.30
2023-08-29T08:20:47.832Z,0.30
2023-08-29T08:23:51.033Z,0.23
2023-08-29T08:26:52.981Z,0.30
2023-08-29T08:29:56.989Z,0.20
2023-08-29T08:32:58.922Z,0.30
2023-08-29T08:36:00.945Z,0.37
2023-08-29T08:39:05.558Z,0.20
2023-08-29T08:42:07.901Z,0.30
2023-08-29T08:45:11.845Z,0.20
2023-08-29T08:48:16.974Z,0.47
2023-08-29T08:51:21.422Z,0.40
2023-08-29T08:54:24.899Z,0.30
2023-08-29T08:57:26.896Z,0.23
2023-08-29T09:00:29.431Z,0.20
2023-08-29T09:03:31.378Z,0.20
2023-08-29T09:06:33.409Z,0.20
2023-08-29T09:09:35.628Z,0.40
2023-08-29T09:12:53.359Z,0.30
2023-08-29T09:15:55.506Z,0.23
2023-08-29T09:18:57.648Z,0.20
2023-08-29T09:21:59.718Z,0.30
2023-08-29T09:25:05.294Z,0.50
2023-08-29T09:28:12.280Z,0.40
2023-08-29T09:31:16.010Z,0.20
2023-08-29T09:34:31.642Z,0.20
2023-08-29T09:37:34.744Z,0.20
2023-08-29T09:40:52.099Z,0.20
2023-08-29T09:43:54.144Z,0.30
2023-08-29T09:46:56.989Z,0.20
2023-08-29T09:49:59.041Z,0.30
2023-08-29T09:53:01.922Z,0.20
2023-08-29T09:56:11.902Z,0.20
2023-08-29T09:59:18.692Z,0.40
2023-08-29T10:02:22.707Z,0.33
2023-08-29T10:05:27.980Z,0.30
2023-08-29T10:08:53.340Z,0.40
2023-08-29T10:11:56.463Z,0.20
2023-08-29T10:14:59.121Z,0.30
2023-08-29T10:18:01.250Z,0.30
2023-08-29T10:21:05.710Z,0.40
2023-08-29T10:24:08.952Z,0.30
2023-08-29T10:27:11.827Z,0.30
2023-08-29T10:30:14.100Z,0.20
2023-08-29T10:33:16.272Z,0.20
2023-08-29T10:36:18.340Z,0.33
2023-08-29T10:39:20.825Z,0.17
2023-08-29T10:42:22.721Z,0.30
2023-08-29T10:45:44.912Z,0.30
2023-08-29T10:48:47.568Z,0.50
2023-08-29T10:52:09.823Z,0.30
2023-08-29T10:55:29.454Z,0.40
2023-08-29T10:58:34.997Z,0.35
2023-08-29T11:01:37.657Z,0.50
2023-08-29T11:04:53.972Z,0.30
2023-08-29T11:08:21.036Z,0.20
2023-08-29T11:11:24.406Z,0.40
2023-08-29T11:18:25.727Z,0.20
2023-08-29T11:21:30.165Z,0.20
2023-08-29T11:24:32.275Z,0.33
2023-08-29T11:27:39.211Z,0.30
2023-08-29T11:30:44.831Z,0.70
2023-08-29T11:33:48.179Z,0.20
2023-08-29T11:36:52.658Z,0.20
2023-08-29T11:39:56.848Z,0.50
2023-08-29T11:43:21.732Z,0.20
2023-08-29T11:46:23.275Z,0.30
2023-08-29T11:49:26.523Z,0.20
2023-08-29T11:52:28.404Z,0.30
2023-08-29T11:55:33.245Z,0.27
2023-08-29T11:58:36.836Z,0.53
2023-08-29T12:01:38.993Z,0.40
2023-08-29T12:04:42.491Z,0.30
2023-08-29T12:07:45.925Z,0.30
2023-08-29T12:10:52.510Z,0.37
2023-08-29T12:14:08.683Z,0.30
2023-08-29T12:17:11.020Z,0.20
2023-08-29T12:20:13.717Z,0.30
2023-08-29T12:23:25.802Z,0.40
2023-08-29T12:26:28.836Z,0.40
2023-08-29T12:29:30.824Z,0.40
2023-08-29T12:32:32.930Z,0.33
2023-08-29T12:35:34.898Z,0.30
2023-08-29T12:38:36.875Z,0.20
2023-08-29T12:41:38.774Z,0.30
2023-08-29T12:44:40.783Z,0.27
2023-08-29T12:47:42.797Z,0.30
2023-08-29T12:50:44.790Z,0.33
2023-08-29T12:53:46.695Z,0.43
2023-08-29T12:56:48.710Z,0.30
2023-08-29T12:59:53.609Z,0.40
2023-08-29T13:02:55.806Z,0.20
2023-08-29T13:05:57.956Z,0.27
2023-08-29T13:09:00.333Z,0.33
2023-08-29T13:12:02.373Z,0.27
2023-08-29T13:15:08.009Z,0.30
2023-08-29T13:18:11.252Z,0.33
2023-08-29T13:21:13.617Z,0.47
2023-08-29T13:24:15.556Z,0.30
2023-08-29T13:27:17.714Z,0.30
2023-08-29T13:30:19.785Z,0.20
2023-08-29T13:33:21.818Z,0.40
2023-08-29T13:36:23.777Z,0.20
2023-08-29T13:39:25.818Z,0.30
2023-08-29T13:42:28.190Z,0.30
2023-08-29T13:45:31.216Z,0.50
2023-08-29T13:48:33.238Z,0.47
2023-08-29T13:51:35.998Z,0.30
2023-08-29T13:54:38.088Z,0.30
2023-08-29T13:57:40.125Z,0.30
2023-08-29T14:00:42.062Z,0.47
2023-08-29T14:03:44.828Z,0.40
2023-08-29T14:06:46.817Z,0.50
2023-08-29T14:09:48.934Z,0.60
2023-08-29T14:12:51.051Z,0.50
2023-08-29T14:16:04.472Z,0.30
2023-08-29T14:19:07.323Z,0.33
2023-08-29T14:22:09.771Z,0.37
2023-08-29T14:25:11.788Z,0.40
2023-08-29T14:28:16.783Z,0.40
2023-08-29T14:31:25.631Z,0.60
2023-08-29T14:34:28.309Z,0.50
2023-08-29T14:37:30.329Z,0.47
2023-08-29T14:40:35.968Z,0.50
2023-08-29T14:43:40.964Z,0.30
2023-08-29T14:46:43.364Z,0.60
2023-08-29T14:49:45.403Z,0.50
2023-08-29T14:52:48.042Z,0.30
2023-08-29T14:55:59.028Z,0.40
2023-08-29T14:59:01.170Z,0.40
2023-08-29T15:02:04.586Z,0.50
2023-08-29T15:05:06.749Z,0.40
2023-08-29T15:08:09.378Z,0.30
2023-08-29T15:11:11.891Z,0.40
2023-08-29T15:14:14.160Z,0.40
2023-08-29T15:17:16.256Z,0.50
2023-08-29T15:20:18.731Z,0.50
2023-08-29T15:23:20.726Z,0.30
2023-08-29T15:26:22.674Z,0.50
2023-08-29T15:29:24.789Z,0.37
2023-08-29T15:32:26.840Z,0.50
2023-08-29T15:35:29.476Z,0.50
2023-08-29T15:38:31.412Z,0.50
2023-08-29T15:41:36.206Z,0.30
2023-08-29T15:44:38.898Z,0.87
2023-08-29T15:47:41.429Z,1.20
2023-08-29T15:50:47.201Z,1.77
2023-08-29T15:53:52.631Z,2.43
2023-08-29T15:56:54.568Z,0.60
2023-08-29T15:59:56.535Z,0.53
2023-08-29T16:02:58.669Z,0.93
2023-08-29T16:06:00.753Z,1.70
2023-08-29T16:09:02.841Z,1.20
2023-08-29T16:12:05.213Z,0.70
2023-08-29T16:15:08.055Z,0.50
2023-08-29T16:18:10.228Z,0.40
2023-08-29T16:21:13.023Z,0.30
2023-08-29T16:24:16.602Z,0.40
2023-08-29T16:27:19.922Z,1.80
2023-08-29T16:30:23.137Z,0.40
2023-08-29T16:33:25.048Z,0.40
2023-08-29T16:36:27.069Z,0.40
2023-08-29T16:39:32.456Z,0.40
2023-08-29T16:42:36.078Z,0.60
2023-08-29T16:45:38.338Z,0.40
2023-08-29T16:48:40.375Z,0.23
2023-08-29T16:51:43.046Z,0.40
2023-08-29T16:54:45.849Z,0.30
2023-08-29T16:57:51.189Z,0.30
2023-08-29T17:00:53.269Z,0.50
2023-08-29T17:03:55.311Z,0.40
2023-08-29T17:06:57.389Z,0.53
2023-08-29T17:10:00.936Z,0.77
2023-08-29T17:13:04.015Z,0.57
2023-08-29T17:16:06.351Z,0.70
2023-08-29T17:19:08.355Z,0.60
2023-08-29T17:22:10.581Z,0.60
2023-08-29T17:25:12.938Z,0.60
2023-08-29T17:28:16.463Z,0.50
2023-08-29T17:31:18.707Z,0.50
2023-08-29T17:34:20.760Z,0.43
2023-08-29T17:37:22.755Z,0.90
2023-08-29T17:40:25.432Z,0.50
2023-08-29T17:43:27.864Z,0.93
2023-08-29T17:46:29.941Z,0.60
2023-08-29T17:49:31.918Z,0.60
2023-08-29T17:52:34.218Z,0.40
2023-08-29T17:55:36.818Z,0.87
2023-08-29T17:58:39.064Z,0.30
2023-08-29T18:01:41.340Z,0.50
2023-08-29T18:04:44.670Z,0.33
2023-08-29T18:07:46.862Z,0.37
2023-08-29T18:10:49.180Z,0.40
2023-08-29T18:13:51.349Z,0.47
2023-08-29T18:16:53.293Z,0.50
2023-08-29T18:19:57.506Z,0.40
2023-08-29T18:23:00.366Z,0.40
2023-08-29T18:26:06.227Z,0.40
2023-08-29T18:29:08.155Z,0.37
2023-08-29T18:32:10.189Z,0.30
2023-08-29T18:35:12.241Z,0.30
2023-08-29T18:38:14.807Z,0.27
2023-08-29T18:41:16.729Z,0.40
2023-08-29T18:44:18.729Z,0.40
2023-08-29T18:47:20.777Z,0.30
2023-08-29T18:50:22.928Z,0.53
2023-08-29T18:53:24.864Z,0.40
2023-08-29T18:56:27.413Z,0.70
2023-08-29T18:59:29.426Z,1.00
2023-08-29T19:02:32.485Z,0.73
2023-08-29T19:05:36.687Z,0.73
2023-08-29T19:08:38.906Z,0.70
2023-08-29T19:11:41.228Z,0.60
2023-08-29T19:14:46.040Z,0.63
2023-08-29T19:17:48.093Z,0.40
2023-08-29T19:20:50.805Z,0.80
2023-08-29T19:23:54.409Z,0.40
2023-08-29T19:26:57.063Z,0.30
2023-08-29T19:29:59.211Z,0.40
2023-08-29T19:33:05.340Z,0.40
2023-08-29T19:36:25.505Z,0.57
2023-08-29T19:39:29.199Z,0.30
2023-08-29T19:42:32.281Z,0.40
2023-08-29T19:45:36.218Z,0.50
2023-08-29T19:48:38.100Z,0.90
2023-08-29T19:51:40.460Z,1.40
2023-08-29T19:54:43.184Z,0.90
2023-08-29T19:57:47.854Z,0.47
2023-08-29T20:00:51.576Z,0.50
2023-08-29T20:03:59.427Z,0.47
2023-08-29T20:07:01.536Z,0.40
2023-08-29T20:10:03.865Z,0.40
2023-08-29T20:13:08.692Z,0.40
2023-08-29T20:16:11.772Z,0.60
2023-08-29T20:19:13.878Z,0.50
2023-08-29T20:22:16.948Z,0.30
2023-08-29T20:25:19.115Z,0.30
2023-08-29T20:28:22.020Z,0.30
2023-08-29T20:31:24.849Z,0.30
2023-08-29T20:34:26.926Z,0.50
2023-08-29T20:37:30.043Z,0.27
2023-08-29T20:40:33.407Z,0.30
2023-08-29T20:43:35.444Z,0.57
2023-08-29T20:46:38.622Z,0.40
2023-08-29T20:49:40.870Z,0.50
2023-08-29T20:52:42.952Z,0.40
2023-08-29T20:55:44.924Z,0.30
2023-08-29T20:58:47.306Z,0.23
2023-08-29T21:01:49.348Z,0.43
2023-08-29T21:04:51.588Z,0.30
2023-08-29T21:07:54.080Z,0.23
2023-08-29T21:10:56.565Z,0.40
2023-08-29T21:13:59.543Z,0.50
2023-08-29T21:17:01.582Z,0.50
2023-08-29T21:20:03.696Z,0.30
2023-08-29T21:23:08.161Z,0.50
2023-08-29T21:26:10.944Z,0.40
2023-08-29T21:29:12.968Z,0.33
2023-08-29T21:32:15.100Z,0.20
2023-08-29T21:35:18.660Z,0.37
2023-08-29T21:38:22.358Z,0.73
2023-08-29T21:41:25.950Z,0.40
2023-08-29T21:44:27.992Z,0.47
2023-08-29T21:47:29.900Z,0.30
2023-08-29T21:50:42.286Z,0.57
2023-08-29T21:53:44.198Z,0.30
2023-08-29T21:56:46.188Z,0.40
2023-08-29T21:59:48.135Z,0.30
2023-08-29T22:02:50.202Z,0.30
2023-08-29T22:05:52.556Z,0.40
2023-08-29T22:08:55.969Z,0.50
2023-08-29T22:11:58.390Z,0.40
2023-08-29T22:15:00.444Z,0.50
2023-08-29T22:18:02.668Z,0.40
2023-08-29T22:21:08.207Z,0.30
2023-08-29T22:24:10.293Z,0.40
2023-08-29T22:27:12.378Z,0.30
2023-08-29T22:30:14.972Z,0.30
2023-08-29T22:33:17.437Z,0.20
2023-08-29T22:36:19.859Z,0.37
2023-08-29T22:39:21.899Z,0.40
2023-08-29T22:42:23.924Z,0.20
2023-08-29T22:45:26.657Z,0.47
2023-08-29T22:48:28.550Z,0.30
2023-08-29T22:51:30.550Z,0.40
2023-08-29T22:54:32.500Z,0.50
2023-08-29T22:57:34.616Z,0.13
2023-08-29T23:00:37.166Z,0.60
2023-08-29T23:03:40.236Z,0.47
2023-08-29T23:06:43.139Z,0.60
2023-08-29T23:09:45.038Z,0.80
2023-08-29T23:12:47.069Z,0.73
2023-08-29T23:15:51.190Z,0.47
2023-08-29T23:18:54.065Z,0.77
2023-08-29T23:21:56.254Z,0.90
2023-08-29T23:24:59.205Z,1.40
2023-08-29T23:28:01.262Z,0.80
2023-08-29T23:31:03.495Z,0.80
2023-08-29T23:34:06.501Z,0.87
2023-08-29T23:37:08.526Z,0.77
2023-08-29T23:40:12.648Z,1.10
2023-08-29T23:43:15.226Z,1.40
2023-08-29T23:46:17.930Z,1.23
2023-08-29T23:49:19.978Z,1.00
2023-08-29T23:52:22.105Z,1.20
2023-08-29T23:55:24.099Z,1.30
2023-08-29T23:58:26.058Z,1.40
